sensor_id;sensor_type;location;lat;lon;timestamp;pressure;altitude;pressure_sealevel;temperature;humidity
37304;BME280;23188;51.188;16.374;2023-04-29T00:02:54;99801.00;;;11.90;88.60
37304;BME280;23188;51.188;16.374;2023-04-29T00:06:57;99794.73;;;11.84;88.75
37304;BME280;23188;51.188;16.374;2023-04-29T00:11:00;99788.65;;;11.83;88.23
37304;BME280;23188;51.188;16.374;2023-04-29T00:15:03;99787.00;;;11.89;87.92
37304;BME280;23188;51.188;16.374;2023-04-29T00:19:06;99785.16;;;11.99;87.93
37304;BME280;23188;51.188;16.374;2023-04-29T00:23:09;99786.65;;;11.98;88.27
37304;BME280;23188;51.188;16.374;2023-04-29T00:27:11;99789.27;;;11.95;88.37
37304;BME280;23188;51.188;16.374;2023-04-29T00:31:14;99791.06;;;11.97;88.60
37304;BME280;23188;51.188;16.374;2023-04-29T00:35:17;99787.76;;;12.02;88.42
37304;BME280;23188;51.188;16.374;2023-04-29T00:39:21;99783.41;;;12.03;88.50
37304;BME280;23188;51.188;16.374;2023-04-29T00:43:23;99780.21;;;12.08;88.54
37304;BME280;23188;51.188;16.374;2023-04-29T00:47:26;99777.66;;;12.12;87.94
37304;BME280;23188;51.188;16.374;2023-04-29T00:51:29;99771.16;;;12.10;88.30
37304;BME280;23188;51.188;16.374;2023-04-29T00:55:32;99774.08;;;12.06;88.85
37304;BME280;23188;51.188;16.374;2023-04-29T00:59:36;99777.88;;;12.03;89.13
37304;BME280;23188;51.188;16.374;2023-04-29T01:03:39;99779.00;;;12.00;89.24
37304;BME280;23188;51.188;16.374;2023-04-29T01:12:06;99781.52;;;11.96;89.29
37304;BME280;23188;51.188;16.374;2023-04-29T01:16:19;99781.30;;;11.98;89.77
37304;BME280;23188;51.188;16.374;2023-04-29T01:20:23;99784.08;;;12.01;89.99
37304;BME280;23188;51.188;16.374;2023-04-29T01:24:27;99783.52;;;12.02;89.41
37304;BME280;23188;51.188;16.374;2023-04-29T01:37:01;99781.74;;;11.90;91.84
37304;BME280;23188;51.188;16.374;2023-04-29T01:41:09;99781.73;;;11.92;91.51
37304;BME280;23188;51.188;16.374;2023-04-29T01:45:14;99774.73;;;12.00;91.26
37304;BME280;23188;51.188;16.374;2023-04-29T01:49:19;99771.10;;;12.07;90.58
37304;BME280;23188;51.188;16.374;2023-04-29T01:53:22;99768.70;;;12.10;90.13
37304;BME280;23188;51.188;16.374;2023-04-29T01:57:25;99766.36;;;12.10;90.63
37304;BME280;23188;51.188;16.374;2023-04-29T02:01:28;99763.99;;;12.07;91.11
37304;BME280;23188;51.188;16.374;2023-04-29T02:05:31;99761.30;;;12.05;91.62
37304;BME280;23188;51.188;16.374;2023-04-29T02:09:36;99754.96;;;11.99;92.25
37304;BME280;23188;51.188;16.374;2023-04-29T02:13:38;99750.92;;;11.98;92.04
37304;BME280;23188;51.188;16.374;2023-04-29T02:17:42;99747.63;;;12.01;92.17
37304;BME280;23188;51.188;16.374;2023-04-29T02:21:45;99746.70;;;11.98;93.45
37304;BME280;23188;51.188;16.374;2023-04-29T02:25:48;99748.77;;;11.87;95.22
37304;BME280;23188;51.188;16.374;2023-04-29T02:29:50;99746.66;;;11.87;94.94
37304;BME280;23188;51.188;16.374;2023-04-29T02:33:53;99742.41;;;11.91;94.93
37304;BME280;23188;51.188;16.374;2023-04-29T02:37:57;99736.16;;;11.95;94.80
37304;BME280;23188;51.188;16.374;2023-04-29T02:42:00;99738.85;;;11.98;94.58
37304;BME280;23188;51.188;16.374;2023-04-29T02:46:03;99744.54;;;11.98;94.55
37304;BME280;23188;51.188;16.374;2023-04-29T02:50:06;99744.09;;;11.95;94.80
37304;BME280;23188;51.188;16.374;2023-04-29T02:54:09;99741.59;;;11.99;94.87
37304;BME280;23188;51.188;16.374;2023-04-29T02:58:13;99740.65;;;12.06;94.75
37304;BME280;23188;51.188;16.374;2023-04-29T03:02:16;99740.21;;;12.08;94.27
37304;BME280;23188;51.188;16.374;2023-04-29T03:06:19;99736.11;;;12.16;93.88
37304;BME280;23188;51.188;16.374;2023-04-29T03:10:22;99732.19;;;12.24;92.90
37304;BME280;23188;51.188;16.374;2023-04-29T03:14:25;99721.65;;;12.30;92.76
37304;BME280;23188;51.188;16.374;2023-04-29T03:18:28;99715.34;;;12.32;92.59
37304;BME280;23188;51.188;16.374;2023-04-29T03:22:31;99716.45;;;12.21;93.63
37304;BME280;23188;51.188;16.374;2023-04-29T03:26:34;99721.30;;;12.09;94.54
37304;BME280;23188;51.188;16.374;2023-04-29T03:30:37;99715.89;;;12.01;94.94
37304;BME280;23188;51.188;16.374;2023-04-29T03:34:40;99706.57;;;11.97;94.93
37304;BME280;23188;51.188;16.374;2023-04-29T03:38:50;99716.45;;;11.93;95.26
37304;BME280;23188;51.188;16.374;2023-04-29T03:42:53;99716.03;;;11.92;95.23
37304;BME280;23188;51.188;16.374;2023-04-29T03:46:56;99725.48;;;11.93;94.77
37304;BME280;23188;51.188;16.374;2023-04-29T03:50:59;99728.70;;;11.97;94.88
37304;BME280;23188;51.188;16.374;2023-04-29T03:55:02;99728.77;;;12.09;94.93
37304;BME280;23188;51.188;16.374;2023-04-29T03:59:06;99728.60;;;12.24;94.16
37304;BME280;23188;51.188;16.374;2023-04-29T04:03:09;99732.42;;;12.25;93.52
37304;BME280;23188;51.188;16.374;2023-04-29T04:07:12;99724.75;;;12.20;93.54
37304;BME280;23188;51.188;16.374;2023-04-29T04:11:15;99730.67;;;12.19;94.39
37304;BME280;23188;51.188;16.374;2023-04-29T04:15:17;99733.36;;;12.26;94.64
37304;BME280;23188;51.188;16.374;2023-04-29T04:19:20;99736.91;;;12.32;94.68
37304;BME280;23188;51.188;16.374;2023-04-29T04:23:23;99744.02;;;12.39;94.66
37304;BME280;23188;51.188;16.374;2023-04-29T04:27:26;99741.05;;;12.46;94.63
37304;BME280;23188;51.188;16.374;2023-04-29T04:31:29;99744.25;;;12.53;94.60
37304;BME280;23188;51.188;16.374;2023-04-29T04:35:32;99737.11;;;12.52;94.31
37304;BME280;23188;51.188;16.374;2023-04-29T04:39:35;99730.19;;;12.51;94.51
37304;BME280;23188;51.188;16.374;2023-04-29T04:43:38;99729.89;;;12.51;95.52
37304;BME280;23188;51.188;16.374;2023-04-29T04:47:43;99721.59;;;12.45;97.27
37304;BME280;23188;51.188;16.374;2023-04-29T04:51:46;99726.47;;;12.38;98.95
37304;BME280;23188;51.188;16.374;2023-04-29T04:55:48;99723.64;;;12.51;98.05
37304;BME280;23188;51.188;16.374;2023-04-29T04:59:51;99721.52;;;12.69;96.86
37304;BME280;23188;51.188;16.374;2023-04-29T05:03:55;99728.92;;;12.89;97.05
37304;BME280;23188;51.188;16.374;2023-04-29T05:07:57;99729.52;;;13.12;96.68
37304;BME280;23188;51.188;16.374;2023-04-29T05:12:00;99729.38;;;13.29;95.36
37304;BME280;23188;51.188;16.374;2023-04-29T05:16:03;99730.45;;;13.33;95.66
37304;BME280;23188;51.188;16.374;2023-04-29T05:20:08;99738.44;;;13.40;95.50
37304;BME280;23188;51.188;16.374;2023-04-29T05:24:11;99738.23;;;13.48;96.35
37304;BME280;23188;51.188;16.374;2023-04-29T05:28:14;99735.11;;;13.50;96.51
37304;BME280;23188;51.188;16.374;2023-04-29T05:32:17;99740.48;;;13.57;96.52
37304;BME280;23188;51.188;16.374;2023-04-29T05:36:23;99750.50;;;13.62;95.93
37304;BME280;23188;51.188;16.374;2023-04-29T05:40:27;99758.54;;;13.60;95.36
37304;BME280;23188;51.188;16.374;2023-04-29T05:44:29;99757.98;;;13.55;95.82
37304;BME280;23188;51.188;16.374;2023-04-29T05:48:32;99757.98;;;13.53;96.29
37304;BME280;23188;51.188;16.374;2023-04-29T05:52:35;99758.17;;;13.49;96.90
37304;BME280;23188;51.188;16.374;2023-04-29T05:56:38;99762.02;;;13.48;97.51
37304;BME280;23188;51.188;16.374;2023-04-29T06:00:41;99766.33;;;13.45;99.50
37304;BME280;23188;51.188;16.374;2023-04-29T06:04:45;99771.60;;;13.34;100.00
37304;BME280;23188;51.188;16.374;2023-04-29T06:08:49;99771.99;;;13.27;100.00
37304;BME280;23188;51.188;16.374;2023-04-29T06:12:52;99776.27;;;13.21;100.00
37304;BME280;23188;51.188;16.374;2023-04-29T06:16:55;99776.25;;;13.18;100.00
37304;BME280;23188;51.188;16.374;2023-04-29T06:20:58;99777.70;;;13.18;100.00
37304;BME280;23188;51.188;16.374;2023-04-29T06:25:01;99774.99;;;13.20;100.00
37304;BME280;23188;51.188;16.374;2023-04-29T06:29:24;99776.73;;;13.27;100.00
37304;BME280;23188;51.188;16.374;2023-04-29T06:33:27;99774.64;;;13.28;100.00
37304;BME280;23188;51.188;16.374;2023-04-29T06:37:32;99771.50;;;13.37;100.00
37304;BME280;23188;51.188;16.374;2023-04-29T06:41:35;99775.98;;;13.51;100.00
37304;BME280;23188;51.188;16.374;2023-04-29T06:46:03;99778.94;;;13.57;100.00
37304;BME280;23188;51.188;16.374;2023-04-29T06:55:02;99776.38;;;13.49;100.00
37304;BME280;23188;51.188;16.374;2023-04-29T06:59:06;99771.38;;;13.46;100.00
37304;BME280;23188;51.188;16.374;2023-04-29T07:03:09;99767.52;;;13.43;100.00
37304;BME280;23188;51.188;16.374;2023-04-29T07:11:44;99770.08;;;13.35;100.00
37304;BME280;23188;51.188;16.374;2023-04-29T07:15:47;99770.00;;;13.29;100.00
37304;BME280;23188;51.188;16.374;2023-04-29T07:19:50;99772.40;;;13.19;100.00
37304;BME280;23188;51.188;16.374;2023-04-29T07:23:53;99773.32;;;13.14;100.00
37304;BME280;23188;51.188;16.374;2023-04-29T07:28:00;99766.61;;;13.27;100.00
37304;BME280;23188;51.188;16.374;2023-04-29T07:32:03;99767.79;;;13.32;100.00
37304;BME280;23188;51.188;16.374;2023-04-29T07:36:06;99768.55;;;13.44;100.00
37304;BME280;23188;51.188;16.374;2023-04-29T07:40:08;99770.23;;;13.45;100.00
37304;BME280;23188;51.188;16.374;2023-04-29T07:44:11;99775.39;;;13.48;100.00
37304;BME280;23188;51.188;16.374;2023-04-29T07:48:15;99780.82;;;13.60;100.00
37304;BME280;23188;51.188;16.374;2023-04-29T07:52:18;99790.27;;;13.76;100.00
37304;BME280;23188;51.188;16.374;2023-04-29T07:56:36;99793.11;;;13.98;100.00
37304;BME280;23188;51.188;16.374;2023-04-29T08:00:38;99800.79;;;14.42;100.00
37304;BME280;23188;51.188;16.374;2023-04-29T08:04:52;99803.02;;;15.06;100.00
37304;BME280;23188;51.188;16.374;2023-04-29T08:08:56;99796.59;;;15.68;100.00
37304;BME280;23188;51.188;16.374;2023-04-29T08:13:06;99802.41;;;16.08;100.00
37304;BME280;23188;51.188;16.374;2023-04-29T08:17:09;99808.11;;;16.51;100.00
37304;BME280;23188;51.188;16.374;2023-04-29T08:21:12;99810.45;;;16.75;100.00
37304;BME280;23188;51.188;16.374;2023-04-29T08:25:15;99802.68;;;16.67;100.00
37304;BME280;23188;51.188;16.374;2023-04-29T08:29:19;99804.82;;;16.65;100.00
37304;BME280;23188;51.188;16.374;2023-04-29T08:33:22;99803.09;;;16.61;100.00
37304;BME280;23188;51.188;16.374;2023-04-29T08:37:24;99806.14;;;16.67;100.00
37304;BME280;23188;51.188;16.374;2023-04-29T08:41:27;99806.25;;;16.82;100.00
37304;BME280;23188;51.188;16.374;2023-04-29T08:45:30;99805.79;;;16.89;99.97
37304;BME280;23188;51.188;16.374;2023-04-29T08:49:35;99797.16;;;17.11;99.80
37304;BME280;23188;51.188;16.374;2023-04-29T08:53:39;99792.89;;;17.49;99.84
37304;BME280;23188;51.188;16.374;2023-04-29T08:57:42;99790.46;;;17.78;96.20
37304;BME280;23188;51.188;16.374;2023-04-29T09:01:46;99788.99;;;17.93;91.18
37304;BME280;23188;51.188;16.374;2023-04-29T09:05:53;99789.86;;;18.00;91.23
37304;BME280;23188;51.188;16.374;2023-04-29T09:10:03;99793.36;;;18.05;92.19
37304;BME280;23188;51.188;16.374;2023-04-29T09:14:06;99795.23;;;18.08;89.26
37304;BME280;23188;51.188;16.374;2023-04-29T09:18:10;99796.06;;;18.04;87.89
37304;BME280;23188;51.188;16.374;2023-04-29T09:22:13;99804.66;;;17.99;90.19
37304;BME280;23188;51.188;16.374;2023-04-29T09:26:16;99805.14;;;17.98;90.37
37304;BME280;23188;51.188;16.374;2023-04-29T09:30:20;99808.58;;;17.87;87.23
37304;BME280;23188;51.188;16.374;2023-04-29T09:34:34;99811.92;;;17.83;86.66
37304;BME280;23188;51.188;16.374;2023-04-29T09:38:51;99814.45;;;17.90;86.40
37304;BME280;23188;51.188;16.374;2023-04-29T09:42:55;99819.11;;;18.03;87.47
37304;BME280;23188;51.188;16.374;2023-04-29T09:47:00;99822.05;;;18.14;87.41
37304;BME280;23188;51.188;16.374;2023-04-29T09:51:05;99827.55;;;18.20;85.88
37304;BME280;23188;51.188;16.374;2023-04-29T09:55:09;99833.79;;;18.29;87.96
37304;BME280;23188;51.188;16.374;2023-04-29T09:59:12;99830.99;;;18.43;84.92
37304;BME280;23188;51.188;16.374;2023-04-29T10:03:16;99827.08;;;18.64;86.84
37304;BME280;23188;51.188;16.374;2023-04-29T10:07:19;99831.27;;;18.92;85.17
37304;BME280;23188;51.188;16.374;2023-04-29T10:11:23;99829.54;;;19.11;83.99
37304;BME280;23188;51.188;16.374;2023-04-29T10:15:31;99826.61;;;19.33;85.25
37304;BME280;23188;51.188;16.374;2023-04-29T10:20:01;99824.69;;;19.18;81.31
37304;BME280;23188;51.188;16.374;2023-04-29T10:24:07;99821.98;;;18.54;81.71
37304;BME280;23188;51.188;16.374;2023-04-29T10:28:13;99827.75;;;18.04;82.71
37304;BME280;23188;51.188;16.374;2023-04-29T10:32:18;99827.49;;;17.84;82.44
37304;BME280;23188;51.188;16.374;2023-04-29T10:36:24;99825.13;;;17.90;81.69
37304;BME280;23188;51.188;16.374;2023-04-29T10:40:30;99818.32;;;17.93;81.12
37304;BME280;23188;51.188;16.374;2023-04-29T10:49:01;99813.47;;;18.37;81.54
37304;BME280;23188;51.188;16.374;2023-04-29T10:53:05;99816.85;;;18.43;80.43
37304;BME280;23188;51.188;16.374;2023-04-29T10:57:08;99820.48;;;18.64;83.15
37304;BME280;23188;51.188;16.374;2023-04-29T11:01:26;99820.50;;;18.57;81.59
37304;BME280;23188;51.188;16.374;2023-04-29T11:05:42;99822.39;;;18.09;88.37
37304;BME280;23188;51.188;16.374;2023-04-29T11:14:20;99830.40;;;17.14;98.27
37304;BME280;23188;51.188;16.374;2023-04-29T11:18:24;99829.02;;;16.89;98.84
37304;BME280;23188;51.188;16.374;2023-04-29T11:22:27;99824.81;;;16.93;99.91
37304;BME280;23188;51.188;16.374;2023-04-29T11:45:45;99820.74;;;18.39;97.33
37304;BME280;23188;51.188;16.374;2023-04-29T11:50:03;99829.39;;;18.62;94.63
37304;BME280;23188;51.188;16.374;2023-04-29T11:54:05;99827.91;;;18.79;92.59
37304;BME280;23188;51.188;16.374;2023-04-29T11:58:10;99821.63;;;19.03;91.15
37304;BME280;23188;51.188;16.374;2023-04-29T12:02:12;99815.73;;;19.25;88.53
37304;BME280;23188;51.188;16.374;2023-04-29T12:06:16;99818.02;;;19.43;86.44
37304;BME280;23188;51.188;16.374;2023-04-29T12:10:18;99822.54;;;19.37;86.20
37304;BME280;23188;51.188;16.374;2023-04-29T12:14:22;99829.25;;;19.00;86.22
37304;BME280;23188;51.188;16.374;2023-04-29T12:18:41;99825.75;;;18.67;88.33
37304;BME280;23188;51.188;16.374;2023-04-29T12:23:15;99823.27;;;18.49;90.04
37304;BME280;23188;51.188;16.374;2023-04-29T12:27:27;99825.24;;;18.45;92.09
37304;BME280;23188;51.188;16.374;2023-04-29T12:31:39;99826.33;;;18.42;93.21
37304;BME280;23188;51.188;16.374;2023-04-29T12:35:56;99826.11;;;18.45;93.94
37304;BME280;23188;51.188;16.374;2023-04-29T12:40:20;99821.80;;;18.40;94.14
37304;BME280;23188;51.188;16.374;2023-04-29T12:44:37;99815.60;;;18.46;93.86
37304;BME280;23188;51.188;16.374;2023-04-29T12:48:49;99817.36;;;18.37;93.74
37304;BME280;23188;51.188;16.374;2023-04-29T12:53:10;99820.92;;;18.05;97.50
37304;BME280;23188;51.188;16.374;2023-04-29T12:57:40;99815.14;;;17.86;99.50
37304;BME280;23188;51.188;16.374;2023-04-29T13:01:48;99809.02;;;17.66;95.36
37304;BME280;23188;51.188;16.374;2023-04-29T13:05:58;99807.79;;;17.90;93.68
37304;BME280;23188;51.188;16.374;2023-04-29T13:10:18;99808.41;;;18.22;93.07
37304;BME280;23188;51.188;16.374;2023-04-29T13:14:22;99806.56;;;18.30;84.99
37304;BME280;23188;51.188;16.374;2023-04-29T13:18:31;99802.67;;;18.43;87.23
37304;BME280;23188;51.188;16.374;2023-04-29T13:22:41;99801.61;;;18.73;85.83
37304;BME280;23188;51.188;16.374;2023-04-29T13:26:55;99805.06;;;18.67;81.98
37304;BME280;23188;51.188;16.374;2023-04-29T13:36:45;99809.27;;;18.01;89.26
37304;BME280;23188;51.188;16.374;2023-04-29T13:40:48;99810.55;;;18.03;90.52
37304;BME280;23188;51.188;16.374;2023-04-29T13:44:58;99807.67;;;18.47;95.63
37304;BME280;23188;51.188;16.374;2023-04-29T13:49:03;99808.94;;;18.77;87.14
37304;BME280;23188;51.188;16.374;2023-04-29T13:53:25;99812.31;;;19.19;84.71
37304;BME280;23188;51.188;16.374;2023-04-29T13:57:48;99813.86;;;19.36;85.66
37304;BME280;23188;51.188;16.374;2023-04-29T14:01:53;99809.55;;;19.54;86.00
37304;BME280;23188;51.188;16.374;2023-04-29T14:06:14;99817.63;;;19.40;84.00
37304;BME280;23188;51.188;16.374;2023-04-29T14:10:31;99829.45;;;19.07;83.30
37304;BME280;23188;51.188;16.374;2023-04-29T14:14:33;99835.71;;;18.57;86.25
37304;BME280;23188;51.188;16.374;2023-04-29T14:18:36;99841.95;;;18.00;91.54
37304;BME280;23188;51.188;16.374;2023-04-29T14:22:37;99861.85;;;16.95;99.16
37304;BME280;23188;51.188;16.374;2023-04-29T14:26:39;99859.89;;;16.19;100.00
37304;BME280;23188;51.188;16.374;2023-04-29T14:30:42;99868.06;;;15.62;100.00
37304;BME280;23188;51.188;16.374;2023-04-29T14:34:48;99875.77;;;15.50;100.00
37304;BME280;23188;51.188;16.374;2023-04-29T14:38:50;99876.45;;;15.37;100.00
37304;BME280;23188;51.188;16.374;2023-04-29T14:42:52;99875.41;;;15.39;100.00
37304;BME280;23188;51.188;16.374;2023-04-29T14:46:54;99882.84;;;15.31;100.00
37304;BME280;23188;51.188;16.374;2023-04-29T14:50:56;99889.54;;;15.23;100.00
37304;BME280;23188;51.188;16.374;2023-04-29T14:54:59;99891.81;;;15.19;100.00
37304;BME280;23188;51.188;16.374;2023-04-29T14:59:00;99894.77;;;15.23;100.00
37304;BME280;23188;51.188;16.374;2023-04-29T15:03:03;99888.27;;;15.29;100.00
37304;BME280;23188;51.188;16.374;2023-04-29T15:07:25;99893.27;;;15.27;100.00
37304;BME280;23188;51.188;16.374;2023-04-29T15:11:28;99895.27;;;15.28;100.00
37304;BME280;23188;51.188;16.374;2023-04-29T15:15:31;99896.96;;;15.22;100.00
37304;BME280;23188;51.188;16.374;2023-04-29T15:19:43;99905.13;;;15.15;100.00
37304;BME280;23188;51.188;16.374;2023-04-29T15:23:45;99916.45;;;15.14;100.00
37304;BME280;23188;51.188;16.374;2023-04-29T15:27:46;99924.73;;;15.05;100.00
37304;BME280;23188;51.188;16.374;2023-04-29T15:31:48;99931.21;;;14.99;100.00
37304;BME280;23188;51.188;16.374;2023-04-29T15:35:50;99935.75;;;14.97;100.00
37304;BME280;23188;51.188;16.374;2023-04-29T15:39:51;99937.54;;;14.97;100.00
37304;BME280;23188;51.188;16.374;2023-04-29T15:43:57;99946.90;;;14.93;100.00
37304;BME280;23188;51.188;16.374;2023-04-29T15:47:59;99948.41;;;14.92;100.00
37304;BME280;23188;51.188;16.374;2023-04-29T15:52:01;99952.77;;;15.03;100.00
37304;BME280;23188;51.188;16.374;2023-04-29T15:56:04;99961.13;;;15.04;100.00
37304;BME280;23188;51.188;16.374;2023-04-29T16:00:07;99961.99;;;15.04;100.00
37304;BME280;23188;51.188;16.374;2023-04-29T16:04:36;99961.54;;;14.96;100.00
37304;BME280;23188;51.188;16.374;2023-04-29T16:08:51;99967.26;;;14.93;100.00
37304;BME280;23188;51.188;16.374;2023-04-29T16:12:55;99973.98;;;14.78;100.00
37304;BME280;23188;51.188;16.374;2023-04-29T16:17:06;99973.46;;;14.80;100.00
37304;BME280;23188;51.188;16.374;2023-04-29T16:21:08;99978.19;;;14.75;100.00
37304;BME280;23188;51.188;16.374;2023-04-29T16:25:10;99982.89;;;14.67;99.96
37304;BME280;23188;51.188;16.374;2023-04-29T16:29:13;99993.79;;;14.59;100.00
37304;BME280;23188;51.188;16.374;2023-04-29T16:33:15;100000.23;;;14.30;100.00
37304;BME280;23188;51.188;16.374;2023-04-29T16:37:17;100010.48;;;14.13;100.00
37304;BME280;23188;51.188;16.374;2023-04-29T16:41:18;100019.41;;;14.04;100.00
37304;BME280;23188;51.188;16.374;2023-04-29T16:45:20;100029.20;;;13.88;100.00
37304;BME280;23188;51.188;16.374;2023-04-29T16:49:25;100037.02;;;13.72;100.00
37304;BME280;23188;51.188;16.374;2023-04-29T16:53:27;100038.08;;;13.54;100.00
37304;BME280;23188;51.188;16.374;2023-04-29T16:57:28;100042.52;;;13.43;100.00
37304;BME280;23188;51.188;16.374;2023-04-29T17:06:14;100054.45;;;13.26;100.00
37304;BME280;23188;51.188;16.374;2023-04-29T17:10:16;100056.58;;;13.13;100.00
37304;BME280;23188;51.188;16.374;2023-04-29T17:14:18;100059.59;;;13.04;100.00
37304;BME280;23188;51.188;16.374;2023-04-29T17:18:20;100071.02;;;12.87;100.00
37304;BME280;23188;51.188;16.374;2023-04-29T17:22:22;100086.11;;;12.72;100.00
37304;BME280;23188;51.188;16.374;2023-04-29T17:26:24;100089.17;;;12.64;100.00
37304;BME280;23188;51.188;16.374;2023-04-29T17:30:26;100093.73;;;12.53;100.00
37304;BME280;23188;51.188;16.374;2023-04-29T17:34:28;100098.40;;;12.49;100.00
37304;BME280;23188;51.188;16.374;2023-04-29T17:38:31;100108.16;;;12.43;100.00
37304;BME280;23188;51.188;16.374;2023-04-29T17:42:36;100117.16;;;12.34;100.00
37304;BME280;23188;51.188;16.374;2023-04-29T17:46:39;100119.17;;;12.30;100.00
37304;BME280;23188;51.188;16.374;2023-04-29T17:50:41;100119.57;;;12.31;100.00
37304;BME280;23188;51.188;16.374;2023-04-29T17:54:43;100119.62;;;12.30;100.00
37304;BME280;23188;51.188;16.374;2023-04-29T17:58:44;100128.66;;;12.33;100.00
37304;BME280;23188;51.188;16.374;2023-04-29T18:02:46;100130.83;;;12.42;100.00
37304;BME280;23188;51.188;16.374;2023-04-29T18:06:48;100139.52;;;12.44;100.00
37304;BME280;23188;51.188;16.374;2023-04-29T18:10:50;100145.85;;;12.43;100.00
37304;BME280;23188;51.188;16.374;2023-04-29T18:14:52;100152.77;;;12.47;100.00
37304;BME280;23188;51.188;16.374;2023-04-29T18:18:54;100158.32;;;12.47;100.00
37304;BME280;23188;51.188;16.374;2023-04-29T18:22:58;100163.89;;;12.54;100.00
37304;BME280;23188;51.188;16.374;2023-04-29T18:27:00;100173.20;;;12.52;100.00
37304;BME280;23188;51.188;16.374;2023-04-29T18:31:02;100176.20;;;12.58;100.00
37304;BME280;23188;51.188;16.374;2023-04-29T18:35:05;100181.79;;;12.55;100.00
37304;BME280;23188;51.188;16.374;2023-04-29T18:39:06;100182.94;;;12.50;100.00
37304;BME280;23188;51.188;16.374;2023-04-29T18:43:08;100194.88;;;12.46;100.00
37304;BME280;23188;51.188;16.374;2023-04-29T18:47:12;100197.94;;;12.44;100.00
37304;BME280;23188;51.188;16.374;2023-04-29T18:51:13;100204.05;;;12.45;100.00
37304;BME280;23188;51.188;16.374;2023-04-29T18:55:15;100203.27;;;12.44;100.00
37304;BME280;23188;51.188;16.374;2023-04-29T18:59:17;100207.70;;;12.30;100.00
37304;BME280;23188;51.188;16.374;2023-04-29T19:03:22;100208.50;;;12.25;100.00
37304;BME280;23188;51.188;16.374;2023-04-29T19:07:24;100214.48;;;12.22;100.00
37304;BME280;23188;51.188;16.374;2023-04-29T19:11:25;100215.79;;;12.23;100.00
37304;BME280;23188;51.188;16.374;2023-04-29T19:15:27;100217.14;;;12.22;100.00
37304;BME280;23188;51.188;16.374;2023-04-29T19:19:33;100221.02;;;12.26;100.00
37304;BME280;23188;51.188;16.374;2023-04-29T19:23:35;100223.07;;;12.23;100.00
37304;BME280;23188;51.188;16.374;2023-04-29T19:27:39;100227.65;;;12.24;100.00
37304;BME280;23188;51.188;16.374;2023-04-29T19:31:45;100231.85;;;12.22;100.00
37304;BME280;23188;51.188;16.374;2023-04-29T19:35:48;100235.79;;;12.26;100.00
37304;BME280;23188;51.188;16.374;2023-04-29T19:39:50;100242.96;;;12.31;100.00
37304;BME280;23188;51.188;16.374;2023-04-29T19:43:53;100242.64;;;12.31;100.00
37304;BME280;23188;51.188;16.374;2023-04-29T19:47:55;100246.46;;;12.28;100.00
37304;BME280;23188;51.188;16.374;2023-04-29T19:52:02;100249.91;;;12.25;100.00
37304;BME280;23188;51.188;16.374;2023-04-29T19:56:04;100256.07;;;12.28;100.00
37304;BME280;23188;51.188;16.374;2023-04-29T20:00:07;100260.14;;;12.26;100.00
37304;BME280;23188;51.188;16.374;2023-04-29T20:04:10;100261.52;;;12.25;100.00
37304;BME280;23188;51.188;16.374;2023-04-29T20:08:14;100260.73;;;12.21;100.00
37304;BME280;23188;51.188;16.374;2023-04-29T20:12:17;100260.60;;;12.23;100.00
37304;BME280;23188;51.188;16.374;2023-04-29T20:16:20;100264.44;;;12.18;100.00
37304;BME280;23188;51.188;16.374;2023-04-29T20:20:24;100268.94;;;12.11;100.00
37304;BME280;23188;51.188;16.374;2023-04-29T20:24:26;100276.83;;;12.12;100.00
37304;BME280;23188;51.188;16.374;2023-04-29T20:28:30;100279.91;;;12.11;100.00
37304;BME280;23188;51.188;16.374;2023-04-29T20:32:32;100286.11;;;12.08;100.00
37304;BME280;23188;51.188;16.374;2023-04-29T20:36:34;100288.84;;;12.07;100.00
37304;BME280;23188;51.188;16.374;2023-04-29T20:40:36;100290.55;;;12.08;100.00
37304;BME280;23188;51.188;16.374;2023-04-29T20:44:38;100297.34;;;12.07;100.00
37304;BME280;23188;51.188;16.374;2023-04-29T20:48:40;100306.27;;;12.03;100.00
37304;BME280;23188;51.188;16.374;2023-04-29T20:52:42;100311.82;;;12.00;100.00
37304;BME280;23188;51.188;16.374;2023-04-29T20:56:45;100312.41;;;11.95;99.02
37304;BME280;23188;51.188;16.374;2023-04-29T21:00:47;100314.52;;;11.87;97.05
37304;BME280;23188;51.188;16.374;2023-04-29T21:04:49;100326.04;;;11.81;97.72
37304;BME280;23188;51.188;16.374;2023-04-29T21:08:52;100334.67;;;11.80;98.26
37304;BME280;23188;51.188;16.374;2023-04-29T21:12:53;100334.03;;;11.79;97.98
37304;BME280;23188;51.188;16.374;2023-04-29T21:16:56;100349.65;;;11.77;98.32
37304;BME280;23188;51.188;16.374;2023-04-29T21:20:59;100355.92;;;11.70;97.99
37304;BME280;23188;51.188;16.374;2023-04-29T21:25:01;100361.36;;;11.75;97.31
37304;BME280;23188;51.188;16.374;2023-04-29T21:29:06;100370.62;;;11.77;96.73
37304;BME280;23188;51.188;16.374;2023-04-29T21:33:08;100373.17;;;11.80;97.11
37304;BME280;23188;51.188;16.374;2023-04-29T21:37:12;100375.94;;;11.75;96.88
37304;BME280;23188;51.188;16.374;2023-04-29T21:41:18;100379.42;;;11.72;97.26
37304;BME280;23188;51.188;16.374;2023-04-29T21:45:23;100383.69;;;11.72;97.13
37304;BME280;23188;51.188;16.374;2023-04-29T21:49:26;100380.84;;;11.68;96.96
37304;BME280;23188;51.188;16.374;2023-04-29T21:53:28;100384.02;;;11.61;97.04
37304;BME280;23188;51.188;16.374;2023-04-29T21:57:31;100383.55;;;11.61;97.08
37304;BME280;23188;51.188;16.374;2023-04-29T22:01:46;100385.98;;;11.59;97.69
37304;BME280;23188;51.188;16.374;2023-04-29T22:05:49;100387.71;;;11.64;98.06
37304;BME280;23188;51.188;16.374;2023-04-29T22:09:51;100391.84;;;11.64;97.51